createdAt,value
2017-10-30T00:00:03.632Z,1011.5
2017-10-30T00:01:05.264Z,1011.6
2017-10-30T00:02:06.965Z,1011.6
2017-10-30T00:03:08.482Z,1011.6
2017-10-30T00:04:09.982Z,1011.6
2017-10-30T00:05:11.461Z,1011.6
2017-10-30T00:06:13.178Z,1011.6
2017-10-30T00:07:14.845Z,1011.6
2017-10-30T00:08:16.427Z,1011.6
2017-10-30T00:09:17.946Z,1011.6
2017-10-30T00:10:19.794Z,1011.5
2017-10-30T00:11:21.361Z,1011.6
2017-10-30T00:12:23.188Z,1011.6
2017-10-30T00:13:24.840Z,1011.6
2017-10-30T00:14:26.490Z,1011.6
2017-10-30T00:15:28.713Z,1011.6
2017-10-30T00:16:30.333Z,1011.7
2017-10-30T00:17:31.993Z,1011.7
2017-10-30T00:18:33.506Z,1011.6
2017-10-30T00:19:35.302Z,1011.7
2017-10-30T00:20:37.035Z,1011.7
2017-10-30T00:21:38.664Z,1011.7
2017-10-30T00:22:40.216Z,1011.7
2017-10-30T00:23:41.791Z,1011.7
2017-10-30T00:24:43.493Z,1011.7
2017-10-30T00:25:45.171Z,1011.8
2017-10-30T00:26:46.853Z,1011.7
2017-10-30T00:27:48.527Z,1011.8
2017-10-30T00:28:50.066Z,1011.8
2017-10-30T00:29:51.782Z,1011.9
2017-10-30T00:30:53.295Z,1011.8
2017-10-30T00:31:55.078Z,1011.8
2017-10-30T00:32:56.740Z,1011.9
2017-10-30T00:33:59.146Z,1011.9
2017-10-30T00:35:00.850Z,1011.9
2017-10-30T00:36:02.525Z,1011.9
2017-10-30T00:37:04.230Z,1011.9
2017-10-30T00:38:05.867Z,1011.9
2017-10-30T00:39:07.360Z,1011.9
2017-10-30T00:40:09.086Z,1011.9
2017-10-30T00:41:10.832Z,1011.9
2017-10-30T00:42:12.515Z,1011.9
2017-10-30T00:43:14.270Z,1011.9
2017-10-30T00:44:15.854Z,1011.9
2017-10-30T00:45:17.540Z,1011.9
2017-10-30T00:46:19.215Z,1012.0
2017-10-30T00:47:20.966Z,1012.0
2017-10-30T00:48:22.725Z,1011.9
2017-10-30T00:49:24.519Z,1012.0
2017-10-30T00:50:26.096Z,1012.0
2017-10-30T00:51:27.934Z,1012.0
2017-10-30T00:52:29.639Z,1012.0
2017-10-30T00:53:31.169Z,1012.0
2017-10-30T00:54:32.875Z,1012.0
2017-10-30T00:55:34.320Z,1012.0
2017-10-30T00:56:35.895Z,1012.0
2017-10-30T00:57:37.539Z,1012.0
2017-10-30T00:58:39.288Z,1012.0
2017-10-30T00:59:40.807Z,1012.0
2017-10-30T01:00:42.536Z,1012.0
2017-10-30T01:01:44.094Z,1012.0
2017-10-30T01:02:45.596Z,1011.9
2017-10-30T01:03:47.427Z,1011.9
2017-10-30T01:04:49.064Z,1011.9
2017-10-30T01:05:50.883Z,1011.9
2017-10-30T01:06:52.661Z,1011.9
2017-10-30T01:07:54.312Z,1011.9
2017-10-30T01:08:55.949Z,1011.9
2017-10-30T01:09:57.468Z,1011.9
2017-10-30T01:10:59.202Z,1011.9
2017-10-30T01:12:00.851Z,1011.9
2017-10-30T01:13:02.328Z,1011.9
2017-10-30T01:14:04.083Z,1011.9
2017-10-30T01:15:05.779Z,1012.0
2017-10-30T01:16:07.542Z,1011.9
2017-10-30T01:17:09.201Z,1012.0
2017-10-30T01:18:10.814Z,1011.9
2017-10-30T01:19:12.587Z,1011.9
2017-10-30T01:20:14.448Z,1012.0
2017-10-30T01:21:16.326Z,1011.9
2017-10-30T01:22:17.873Z,1011.9
2017-10-30T01:23:19.550Z,1011.9
2017-10-30T01:24:21.070Z,1011.8
2017-10-30T01:25:22.799Z,1011.9
2017-10-30T01:26:24.627Z,1011.9
2017-10-30T01:27:26.559Z,1011.9
2017-10-30T01:28:28.314Z,1012.0
2017-10-30T01:29:30.044Z,1012.0
2017-10-30T01:30:31.863Z,1012.0
2017-10-30T01:31:33.537Z,1011.9
2017-10-30T01:32:35.191Z,1012.0
2017-10-30T01:33:36.893Z,1011.9
2017-10-30T01:34:38.469Z,1012.0
2017-10-30T01:35:39.972Z,1012.0
2017-10-30T01:36:41.583Z,1012.0
2017-10-30T01:37:43.269Z,1011.9
2017-10-30T01:38:45.019Z,1012.0
2017-10-30T01:39:46.742Z,1011.9
2017-10-30T01:40:48.420Z,1012.0
2017-10-30T01:41:50.200Z,1012.0
2017-10-30T01:42:51.850Z,1012.0
2017-10-30T01:43:53.619Z,1012.0
2017-10-30T01:44:55.306Z,1012.0
2017-10-30T01:45:56.968Z,1012.0
2017-10-30T01:46:58.719Z,1011.9
2017-10-30T01:48:00.444Z,1012.0
2017-10-30T01:49:02.056Z,1012.0
2017-10-30T01:50:03.698Z,1012.1
2017-10-30T01:51:05.388Z,1012.0
2017-10-30T01:52:07.169Z,1012.0
2017-10-30T01:53:08.888Z,1012.0
2017-10-30T01:54:10.613Z,1012.0
2017-10-30T01:55:12.357Z,1012.0
2017-10-30T01:56:14.107Z,1012.0
2017-10-30T01:57:15.935Z,1012.0
2017-10-30T01:58:17.545Z,1012.0
2017-10-30T01:59:19.374Z,1012.0
2017-10-30T02:00:21.132Z,1012.1
2017-10-30T02:01:22.826Z,1012.1
2017-10-30T02:02:24.501Z,1012.1
2017-10-30T02:03:26.146Z,1012.1
2017-10-30T02:04:27.913Z,1012.1
2017-10-30T02:05:29.396Z,1012.1
2017-10-30T02:06:31.279Z,1012.1
2017-10-30T02:07:32.940Z,1012.1
2017-10-30T02:08:34.770Z,1012.1
2017-10-30T02:09:36.345Z,1012.1
2017-10-30T02:10:38.090Z,1012.1
2017-10-30T02:11:39.689Z,1012.0
2017-10-30T02:12:41.348Z,1012.0
2017-10-30T02:13:43.059Z,1012.0
2017-10-30T02:14:44.722Z,1012.1
2017-10-30T02:15:46.388Z,1012.0
2017-10-30T02:16:47.967Z,1012.1
2017-10-30T02:17:49.732Z,1012.1
2017-10-30T02:18:51.309Z,1012.1
2017-10-30T02:19:52.951Z,1012.1
2017-10-30T02:20:54.691Z,1012.1
2017-10-30T02:21:56.193Z,1012.1
2017-10-30T02:22:57.882Z,1012.1
2017-10-30T02:23:59.604Z,1012.1
2017-10-30T02:25:01.377Z,1012.1
2017-10-30T02:26:02.856Z,1012.1
2017-10-30T02:27:04.576Z,1012.1
2017-10-30T02:28:06.295Z,1012.1
2017-10-30T02:29:07.981Z,1012.1
2017-10-30T02:30:09.681Z,1012.1
2017-10-30T02:31:11.274Z,1012.0
2017-10-30T02:32:12.933Z,1012.0
2017-10-30T02:33:14.464Z,1012.1
2017-10-30T02:34:16.029Z,1012.1
2017-10-30T02:35:17.567Z,1012.1
2017-10-30T02:36:19.382Z,1012.2
2017-10-30T02:37:21.097Z,1012.2
2017-10-30T02:38:22.736Z,1012.3
2017-10-30T02:39:24.367Z,1012.3
2017-10-30T02:40:26.062Z,1012.3
2017-10-30T02:41:27.717Z,1012.3
2017-10-30T02:42:29.527Z,1012.3
2017-10-30T02:43:31.171Z,1012.3
2017-10-30T02:44:32.810Z,1012.3
2017-10-30T02:45:34.489Z,1012.3
2017-10-30T02:46:35.990Z,1012.2
2017-10-30T02:47:37.653Z,1012.3
2017-10-30T02:48:39.357Z,1012.3
2017-10-30T02:49:41.075Z,1012.3
2017-10-30T02:50:42.681Z,1012.3
2017-10-30T02:51:44.343Z,1012.3
2017-10-30T02:52:45.987Z,1012.3
2017-10-30T02:53:47.678Z,1012.3
2017-10-30T02:54:49.372Z,1012.4
2017-10-30T02:55:51.029Z,1012.3
2017-10-30T02:56:52.747Z,1012.3
2017-10-30T02:57:54.527Z,1012.3
2017-10-30T02:58:56.258Z,1012.3
2017-10-30T02:59:58.068Z,1012.4
2017-10-30T03:00:59.715Z,1012.4
2017-10-30T03:02:01.363Z,1012.4
2017-10-30T03:03:03.042Z,1012.4
2017-10-30T03:04:04.879Z,1012.5
2017-10-30T03:05:06.566Z,1012.5
2017-10-30T03:06:08.398Z,1012.5
2017-10-30T03:07:10.168Z,1012.5
2017-10-30T03:08:11.858Z,1012.5
2017-10-30T03:09:13.578Z,1012.5
2017-10-30T03:10:15.297Z,1012.5
2017-10-30T03:11:17.007Z,1012.5
2017-10-30T03:12:18.688Z,1012.4
2017-10-30T03:13:20.341Z,1012.4
2017-10-30T03:14:21.964Z,1012.4
2017-10-30T03:15:23.730Z,1012.5
2017-10-30T03:16:25.337Z,1012.5
2017-10-30T03:17:26.963Z,1012.5
2017-10-30T03:18:28.726Z,1012.5
2017-10-30T03:19:30.408Z,1012.5
2017-10-30T03:20:32.033Z,1012.5
2017-10-30T03:21:33.769Z,1012.5
2017-10-30T03:22:35.658Z,1012.5
2017-10-30T03:23:37.284Z,1012.6
2017-10-30T03:24:39.113Z,1012.6
2017-10-30T03:25:40.735Z,1012.7
2017-10-30T03:26:42.469Z,1012.7
2017-10-30T03:27:44.291Z,1012.7
2017-10-30T03:28:45.890Z,1012.7
2017-10-30T03:29:47.619Z,1012.7
2017-10-30T03:30:49.169Z,1012.7
2017-10-30T03:31:50.741Z,1012.8
2017-10-30T03:32:52.496Z,1012.8
2017-10-30T03:33:54.151Z,1012.7
2017-10-30T03:34:55.992Z,1012.8
2017-10-30T03:35:58.420Z,1012.7
2017-10-30T03:37:00.088Z,1012.7
2017-10-30T03:38:01.667Z,1012.7
2017-10-30T03:39:03.394Z,1012.7
2017-10-30T03:40:05.109Z,1012.7
2017-10-30T03:41:06.640Z,1012.7
2017-10-30T03:42:08.436Z,1012.8
2017-10-30T03:43:10.292Z,1012.8
2017-10-30T03:44:11.939Z,1012.9
2017-10-30T03:45:13.543Z,1012.9
2017-10-30T03:46:15.273Z,1012.9
2017-10-30T03:47:16.967Z,1012.9
2017-10-30T03:48:18.726Z,1012.9
2017-10-30T03:49:20.413Z,1013.0
2017-10-30T03:50:22.160Z,1013.0
2017-10-30T03:51:23.966Z,1013.0
2017-10-30T03:52:25.623Z,1013.1
2017-10-30T03:53:27.074Z,1013.0
2017-10-30T03:54:28.977Z,1013.0
2017-10-30T03:55:30.558Z,1013.0
2017-10-30T03:56:32.291Z,1013.0
2017-10-30T03:57:34.060Z,1013.0
2017-10-30T03:58:35.517Z,1013.0
2017-10-30T03:59:37.189Z,1013.0
2017-10-30T04:00:38.813Z,1013.0
2017-10-30T04:01:40.331Z,1013.0
2017-10-30T04:02:42.083Z,1013.0
2017-10-30T04:03:43.840Z,1013.1
2017-10-30T04:04:45.507Z,1013.1
2017-10-30T04:05:47.238Z,1013.1
2017-10-30T04:06:48.856Z,1013.1
2017-10-30T04:07:50.546Z,1013.1
2017-10-30T04:08:52.161Z,1013.1
2017-10-30T04:09:53.881Z,1013.1
2017-10-30T04:10:55.522Z,1013.1
2017-10-30T04:11:57.340Z,1013.1
2017-10-30T04:12:59.008Z,1013.0
2017-10-30T04:14:00.660Z,1013.1
2017-10-30T04:15:02.522Z,1013.1
2017-10-30T04:16:04.202Z,1013.1
2017-10-30T04:17:05.885Z,1013.2
2017-10-30T04:18:07.662Z,1013.2
2017-10-30T04:19:09.351Z,1013.2
2017-10-30T04:20:11.107Z,1013.2
2017-10-30T04:21:12.933Z,1013.2
2017-10-30T04:22:14.614Z,1013.2
2017-10-30T04:23:16.369Z,1013.2
2017-10-30T04:24:18.054Z,1013.2
2017-10-30T04:25:19.759Z,1013.3
2017-10-30T04:26:21.378Z,1013.3
2017-10-30T04:27:23.112Z,1013.3
2017-10-30T04:28:24.863Z,1013.3
2017-10-30T04:29:26.537Z,1013.3
2017-10-30T04:30:28.332Z,1013.3
2017-10-30T04:31:29.950Z,1013.4
2017-10-30T04:32:31.705Z,1013.4
2017-10-30T04:33:33.329Z,1013.4
2017-10-30T04:34:34.998Z,1013.4
2017-10-30T04:35:36.785Z,1013.4
2017-10-30T04:36:38.576Z,1013.4
2017-10-30T04:37:40.253Z,1013.4
2017-10-30T04:38:41.739Z,1013.5
2017-10-30T04:39:43.491Z,1013.5
2017-10-30T04:40:45.132Z,1013.5
2017-10-30T04:41:46.853Z,1013.5
2017-10-30T04:42:48.680Z,1013.5
2017-10-30T04:43:50.301Z,1013.5
2017-10-30T04:44:52.017Z,1013.5
2017-10-30T04:45:53.924Z,1013.5
2017-10-30T04:46:55.535Z,1013.5
2017-10-30T04:47:57.225Z,1013.5
2017-10-30T04:48:59.231Z,1013.5
2017-10-30T04:50:00.976Z,1013.5
2017-10-30T04:51:02.548Z,1013.5
2017-10-30T04:52:04.198Z,1013.5
2017-10-30T04:53:05.796Z,1013.5
2017-10-30T04:54:07.468Z,1013.5
2017-10-30T04:55:09.033Z,1013.5
2017-10-30T04:56:10.582Z,1013.5
2017-10-30T04:57:12.240Z,1013.5
2017-10-30T04:58:13.917Z,1013.6
2017-10-30T04:59:15.569Z,1013.6
2017-10-30T05:00:17.428Z,1013.6
2017-10-30T05:01:19.068Z,1013.6
2017-10-30T05:02:20.737Z,1013.6
2017-10-30T05:03:22.420Z,1013.6
2017-10-30T05:04:24.063Z,1013.6
2017-10-30T05:05:25.683Z,1013.6
2017-10-30T05:06:27.402Z,1013.6
2017-10-30T05:07:29.052Z,1013.6
2017-10-30T05:08:30.756Z,1013.6
2017-10-30T05:09:32.492Z,1013.6
2017-10-30T05:10:34.247Z,1013.6
2017-10-30T05:11:35.936Z,1013.6
2017-10-30T05:12:37.521Z,1013.6
2017-10-30T05:13:39.343Z,1013.7
2017-10-30T05:14:41.152Z,1013.7
2017-10-30T05:15:42.753Z,1013.7
2017-10-30T05:16:44.532Z,1013.7
2017-10-30T05:17:45.996Z,1013.7
2017-10-30T05:18:47.600Z,1013.7
2017-10-30T05:19:49.215Z,1013.6
2017-10-30T05:20:50.928Z,1013.7
2017-10-30T05:21:52.673Z,1013.7
2017-10-30T05:22:54.284Z,1013.7
2017-10-30T05:23:55.981Z,1013.8
2017-10-30T05:24:57.787Z,1013.7
2017-10-30T05:25:59.502Z,1013.7
2017-10-30T05:27:01.214Z,1013.7
2017-10-30T05:28:02.909Z,1013.7
2017-10-30T05:29:04.485Z,1013.7
2017-10-30T05:30:06.809Z,1013.8
2017-10-30T05:31:10.224Z,1013.8
2017-10-30T05:32:12.128Z,1013.8
2017-10-30T05:33:14.208Z,1013.7
2017-10-30T05:34:15.829Z,1013.8
2017-10-30T05:35:17.374Z,1013.8
2017-10-30T05:36:19.278Z,1013.8
2017-10-30T05:37:21.215Z,1013.8
2017-10-30T05:38:22.955Z,1013.9
2017-10-30T05:39:24.589Z,1013.9
2017-10-30T05:40:26.277Z,1013.9
2017-10-30T05:41:28.087Z,1013.9
2017-10-30T05:42:29.943Z,1013.9
2017-10-30T05:43:31.557Z,1013.9
2017-10-30T05:44:33.286Z,1013.9
2017-10-30T05:45:34.887Z,1014.0
2017-10-30T05:46:36.496Z,1014.0
2017-10-30T05:47:38.081Z,1014.0
2017-10-30T05:48:39.803Z,1013.9
2017-10-30T05:49:41.393Z,1014.0
2017-10-30T05:50:43.247Z,1014.0
2017-10-30T05:51:45.045Z,1014.0
2017-10-30T05:52:46.633Z,1014.0
2017-10-30T05:53:48.445Z,1014.0
2017-10-30T05:54:49.972Z,1014.0
2017-10-30T05:55:51.602Z,1014.0
2017-10-30T05:56:53.430Z,1014.0
2017-10-30T05:57:55.064Z,1014.0
2017-10-30T05:58:56.710Z,1014.0
2017-10-30T05:59:58.451Z,1014.0
2017-10-30T06:01:00.168Z,1014.0
2017-10-30T06:02:01.692Z,1014.0
2017-10-30T06:03:03.450Z,1014.1
2017-10-30T06:04:05.091Z,1014.0
2017-10-30T06:05:06.757Z,1014.1
2017-10-30T06:06:08.423Z,1014.0
2017-10-30T06:07:10.128Z,1014.1
2017-10-30T06:08:11.756Z,1014.1
2017-10-30T06:09:13.497Z,1014.1
2017-10-30T06:10:15.027Z,1014.1
2017-10-30T06:11:16.753Z,1014.1
2017-10-30T06:12:18.504Z,1014.1
2017-10-30T06:13:19.965Z,1014.1
2017-10-30T06:14:21.428Z,1014.2
2017-10-30T06:15:22.948Z,1014.2
2017-10-30T06:16:24.641Z,1014.2
2017-10-30T06:17:26.297Z,1014.2
2017-10-30T06:18:27.975Z,1014.2
2017-10-30T06:19:29.691Z,1014.3
2017-10-30T06:20:31.306Z,1014.3
2017-10-30T06:21:33.058Z,1014.3
2017-10-30T06:22:34.720Z,1014.3
2017-10-30T06:23:36.433Z,1014.3
2017-10-30T06:24:38.121Z,1014.3
2017-10-30T06:25:39.729Z,1014.3
2017-10-30T06:26:41.432Z,1014.3
2017-10-30T06:27:43.196Z,1014.3
2017-10-30T06:28:44.878Z,1014.3
2017-10-30T06:29:46.475Z,1014.3
2017-10-30T06:30:48.170Z,1014.4
2017-10-30T06:31:49.845Z,1014.4
2017-10-30T06:32:51.285Z,1014.4
2017-10-30T06:33:52.928Z,1014.4
2017-10-30T06:34:54.545Z,1014.4
2017-10-30T06:35:55.992Z,1014.4
2017-10-30T06:36:57.674Z,1014.5
2017-10-30T06:37:59.165Z,1014.5
2017-10-30T06:39:00.783Z,1014.5
2017-10-30T06:40:02.395Z,1014.5
2017-10-30T06:41:03.824Z,1014.5
2017-10-30T06:42:05.354Z,1014.6
2017-10-30T06:43:06.852Z,1014.5
2017-10-30T06:44:08.534Z,1014.5
2017-10-30T06:45:10.233Z,1014.6
2017-10-30T06:46:11.917Z,1014.6
2017-10-30T06:47:13.695Z,1014.6
2017-10-30T06:48:15.139Z,1014.6
2017-10-30T06:49:16.783Z,1014.6
2017-10-30T06:50:18.428Z,1014.6
2017-10-30T06:51:19.848Z,1014.6
2017-10-30T06:52:21.540Z,1014.6
2017-10-30T06:53:23.114Z,1014.6
2017-10-30T06:54:24.780Z,1014.7
2017-10-30T06:55:26.449Z,1014.7
2017-10-30T06:56:28.098Z,1014.8
2017-10-30T06:57:29.547Z,1014.7
2017-10-30T06:58:31.219Z,1014.8
2017-10-30T06:59:32.936Z,1014.8
2017-10-30T07:00:34.614Z,1014.7
2017-10-30T07:01:36.272Z,1014.7
2017-10-30T07:02:37.849Z,1014.7
2017-10-30T07:03:39.299Z,1014.7
2017-10-30T07:04:40.814Z,1014.8
2017-10-30T07:05:42.546Z,1014.8
2017-10-30T07:06:44.247Z,1014.8
2017-10-30T07:07:45.986Z,1014.8
2017-10-30T07:08:47.609Z,1014.9
2017-10-30T07:09:49.051Z,1014.9
2017-10-30T07:10:50.538Z,1014.9
2017-10-30T07:11:52.246Z,1014.9
2017-10-30T07:12:54.002Z,1014.9
2017-10-30T07:13:55.678Z,1014.9
2017-10-30T07:14:57.342Z,1014.9
2017-10-30T07:15:59.085Z,1015.0
2017-10-30T07:17:00.758Z,1014.9
2017-10-30T07:18:02.302Z,1015.0
2017-10-30T07:19:03.881Z,1015.0
2017-10-30T07:20:05.616Z,1015.0
2017-10-30T07:21:07.360Z,1015.0
2017-10-30T07:22:09.034Z,1015.0
2017-10-30T07:23:10.851Z,1015.1
2017-10-30T07:24:12.352Z,1015.2
2017-10-30T07:25:13.839Z,1015.2
2017-10-30T07:26:15.326Z,1015.2
2017-10-30T07:27:16.766Z,1015.2
2017-10-30T07:28:18.308Z,1015.2
2017-10-30T07:29:19.829Z,1015.2
2017-10-30T07:30:21.547Z,1015.2
2017-10-30T07:31:23.442Z,1015.2
2017-10-30T07:32:25.314Z,1015.2
2017-10-30T07:33:26.984Z,1015.3
2017-10-30T07:34:28.854Z,1015.3
2017-10-30T07:35:30.535Z,1015.3
2017-10-30T07:36:32.069Z,1015.3
2017-10-30T07:37:33.900Z,1015.3
2017-10-30T07:38:36.007Z,1015.3
2017-10-30T07:39:37.612Z,1015.3
2017-10-30T07:40:39.345Z,1015.4
2017-10-30T07:41:41.073Z,1015.4
2017-10-30T07:42:42.506Z,1015.3
2017-10-30T07:43:44.002Z,1015.3
2017-10-30T07:44:45.719Z,1015.3
2017-10-30T07:45:47.448Z,1015.3
2017-10-30T07:46:49.190Z,1015.3
2017-10-30T07:47:50.893Z,1015.3
2017-10-30T07:48:52.447Z,1015.3
2017-10-30T07:49:54.015Z,1015.3
2017-10-30T07:50:55.459Z,1015.3
2017-10-30T07:51:56.918Z,1015.3
2017-10-30T07:52:58.368Z,1015.4
2017-10-30T07:53:59.992Z,1015.4
2017-10-30T07:55:01.493Z,1015.4
2017-10-30T07:56:03.087Z,1015.5
2017-10-30T07:57:04.760Z,1015.5
2017-10-30T07:58:06.302Z,1015.5
2017-10-30T07:59:07.985Z,1015.5
2017-10-30T08:00:09.734Z,1015.5
2017-10-30T08:01:11.160Z,1015.5
2017-10-30T08:02:14.422Z,1015.5
2017-10-30T08:03:16.086Z,1015.6
2017-10-30T08:04:17.851Z,1015.7
2017-10-30T08:05:19.316Z,1015.6
2017-10-30T08:06:20.810Z,1015.6
2017-10-30T08:07:22.279Z,1015.7
2017-10-30T08:08:23.884Z,1015.7
2017-10-30T08:09:25.314Z,1015.7
2017-10-30T08:10:27.038Z,1015.7
2017-10-30T08:11:28.608Z,1015.7
2017-10-30T08:12:30.313Z,1015.7
2017-10-30T08:13:32.185Z,1015.7
2017-10-30T08:14:33.963Z,1015.7
2017-10-30T08:15:35.704Z,1015.8
2017-10-30T08:16:37.191Z,1015.8
2017-10-30T08:17:38.685Z,1015.8
2017-10-30T08:18:40.507Z,1015.8
2017-10-30T08:19:42.249Z,1015.8
2017-10-30T08:20:44.051Z,1015.8
2017-10-30T08:21:45.892Z,1015.8
2017-10-30T08:22:47.681Z,1015.8
2017-10-30T08:23:49.466Z,1015.8
2017-10-30T08:24:51.251Z,1015.8
2017-10-30T08:25:52.797Z,1015.8
2017-10-30T08:26:54.257Z,1015.7
2017-10-30T08:27:55.857Z,1015.8
2017-10-30T08:28:57.357Z,1015.8
2017-10-30T08:29:58.899Z,1015.8
2017-10-30T08:31:00.534Z,1015.8
2017-10-30T08:32:02.031Z,1015.8
2017-10-30T08:33:03.588Z,1015.9
2017-10-30T08:34:05.073Z,1015.9
2017-10-30T08:35:06.848Z,1015.9
2017-10-30T08:36:08.576Z,1015.9
2017-10-30T08:37:10.281Z,1015.9
2017-10-30T08:38:12.032Z,1016.0
2017-10-30T08:39:13.548Z,1016.0
2017-10-30T08:40:15.053Z,1016.0
2017-10-30T08:41:16.487Z,1016.0
2017-10-30T08:42:18.248Z,1016.0
2017-10-30T08:43:20.021Z,1016.0
2017-10-30T08:44:21.477Z,1016.0
2017-10-30T08:45:23.040Z,1016.0
2017-10-30T08:46:24.657Z,1016.0
2017-10-30T08:47:26.311Z,1016.0
2017-10-30T08:48:28.746Z,1016.0
2017-10-30T08:49:30.485Z,1016.0
2017-10-30T08:50:32.252Z,1016.0
2017-10-30T08:51:33.697Z,1016.0
2017-10-30T08:52:35.157Z,1016.0
2017-10-30T08:53:37.006Z,1016.1
2017-10-30T08:54:38.511Z,1016.1
2017-10-30T08:55:40.075Z,1016.1
2017-10-30T08:56:41.690Z,1016.1
2017-10-30T08:57:43.360Z,1016.1
2017-10-30T08:58:44.946Z,1016.1
2017-10-30T08:59:46.802Z,1016.1
2017-10-30T09:00:48.396Z,1016.1
2017-10-30T09:01:49.889Z,1016.1
2017-10-30T09:02:51.714Z,1016.1
2017-10-30T09:03:53.679Z,1016.2
2017-10-30T09:04:55.593Z,1016.1
2017-10-30T09:05:57.464Z,1016.1
2017-10-30T09:06:59.226Z,1016.1
2017-10-30T09:08:01.126Z,1016.2
2017-10-30T09:09:03.422Z,1016.2
2017-10-30T09:10:05.053Z,1016.3
2017-10-30T09:11:07.169Z,1016.3
2017-10-30T09:12:08.965Z,1016.2
2017-10-30T09:13:10.849Z,1016.2
2017-10-30T09:14:12.538Z,1016.3
2017-10-30T09:15:14.506Z,1016.3
2017-10-30T09:16:16.335Z,1016.3
2017-10-30T09:17:18.316Z,1016.4
2017-10-30T09:18:20.140Z,1016.3
2017-10-30T09:19:22.078Z,1016.3
2017-10-30T09:20:23.947Z,1016.3
2017-10-30T09:21:25.428Z,1016.3
2017-10-30T09:22:27.365Z,1016.4
2017-10-30T09:23:29.078Z,1016.4
2017-10-30T09:24:30.598Z,1016.4
2017-10-30T09:25:32.193Z,1016.4
2017-10-30T09:26:34.116Z,1016.4
2017-10-30T09:27:35.876Z,1016.4
2017-10-30T09:28:37.379Z,1016.4
2017-10-30T09:29:39.019Z,1016.4
2017-10-30T09:30:40.725Z,1016.5
2017-10-30T09:31:42.456Z,1016.5
2017-10-30T09:32:43.972Z,1016.4
2017-10-30T09:33:45.817Z,1016.4
2017-10-30T09:34:47.430Z,1016.4
2017-10-30T09:35:49.531Z,1016.4
2017-10-30T09:36:51.164Z,1016.4
2017-10-30T09:37:52.759Z,1016.4
2017-10-30T09:38:54.950Z,1016.4
2017-10-30T09:39:56.733Z,1016.4
2017-10-30T09:40:59.820Z,1016.4
2017-10-30T09:42:01.259Z,1016.5
2017-10-30T09:43:03.331Z,1016.5
2017-10-30T09:44:05.311Z,1016.5
2017-10-30T09:45:06.794Z,1016.5
2017-10-30T09:46:09.056Z,1016.5
2017-10-30T09:47:10.859Z,1016.6
2017-10-30T09:48:12.791Z,1016.6
2017-10-30T09:49:14.528Z,1016.5
2017-10-30T09:50:16.286Z,1016.6
2017-10-30T09:51:18.129Z,1016.6
2017-10-30T09:52:20.163Z,1016.5
2017-10-30T09:53:21.874Z,1016.6
2017-10-30T09:54:23.549Z,1016.6
2017-10-30T09:55:25.682Z,1016.5
2017-10-30T09:56:27.267Z,1016.5
2017-10-30T09:57:28.989Z,1016.6
2017-10-30T09:58:30.905Z,1016.5
2017-10-30T09:59:32.704Z,1016.6
2017-10-30T10:00:34.454Z,1016.5
2017-10-30T10:01:35.996Z,1016.5
2017-10-30T10:02:37.627Z,1016.5
2017-10-30T10:03:39.689Z,1016.6
2017-10-30T10:04:41.450Z,1016.6
2017-10-30T10:05:43.704Z,1016.6
2017-10-30T10:06:45.436Z,1016.6
2017-10-30T10:07:47.192Z,1016.6
2017-10-30T10:08:49.251Z,1016.7
2017-10-30T10:09:50.907Z,1016.7
2017-10-30T10:10:53.133Z,1016.7
2017-10-30T10:11:54.980Z,1016.7
2017-10-30T10:12:56.648Z,1016.7
2017-10-30T10:13:58.434Z,1016.7
2017-10-30T10:15:00.009Z,1016.7
2017-10-30T10:16:01.772Z,1016.7
2017-10-30T10:17:03.931Z,1016.7
2017-10-30T10:18:05.824Z,1016.8
2017-10-30T10:19:07.989Z,1016.7
2017-10-30T10:20:10.207Z,1016.7
2017-10-30T10:21:11.973Z,1016.8
2017-10-30T10:22:14.226Z,1016.8
2017-10-30T10:23:15.872Z,1016.8
2017-10-30T10:24:17.660Z,1016.8
2017-10-30T10:25:19.361Z,1016.8
2017-10-30T10:26:20.990Z,1016.8
2017-10-30T10:27:23.348Z,1016.8
2017-10-30T10:28:25.634Z,1016.8
2017-10-30T10:29:27.427Z,1016.9
2017-10-30T10:30:29.685Z,1016.9
2017-10-30T10:31:31.363Z,1016.9
2017-10-30T10:32:33.095Z,1016.8
2017-10-30T10:33:34.934Z,1016.8
2017-10-30T10:34:36.988Z,1016.8
2017-10-30T10:35:38.788Z,1016.8
2017-10-30T10:36:40.835Z,1016.8
2017-10-30T10:37:43.132Z,1016.9
2017-10-30T10:38:44.951Z,1017.0
2017-10-30T10:39:46.945Z,1017.0
2017-10-30T10:40:48.872Z,1017.0
2017-10-30T10:41:50.735Z,1017.0
2017-10-30T10:42:52.732Z,1017.0
2017-10-30T10:43:54.667Z,1016.9
2017-10-30T10:44:56.855Z,1017.0
2017-10-30T10:45:58.760Z,1016.9
2017-10-30T10:47:00.734Z,1017.0
2017-10-30T10:48:02.741Z,1016.9
2017-10-30T10:49:04.502Z,1016.9
2017-10-30T10:50:06.252Z,1016.9
2017-10-30T10:51:08.027Z,1016.9
2017-10-30T10:52:10.102Z,1016.9
2017-10-30T10:53:12.300Z,1017.0
2017-10-30T10:54:14.156Z,1017.0
2017-10-30T10:55:15.877Z,1017.0
2017-10-30T10:56:17.633Z,1017.0
2017-10-30T10:57:19.432Z,1017.0
2017-10-30T10:58:20.977Z,1017.0
2017-10-30T10:59:22.736Z,1016.9
2017-10-30T11:00:24.498Z,1016.8
2017-10-30T11:01:26.370Z,1016.9
2017-10-30T11:02:28.230Z,1016.9
2017-10-30T11:03:30.110Z,1016.9
2017-10-30T11:04:31.989Z,1016.9
2017-10-30T11:05:33.928Z,1016.9
2017-10-30T11:06:35.426Z,1017.0
2017-10-30T11:07:37.268Z,1017.0
2017-10-30T11:08:39.156Z,1017.0
2017-10-30T11:09:41.016Z,1017.0
2017-10-30T11:10:43.138Z,1017.0
2017-10-30T11:11:44.872Z,1017.0
2017-10-30T11:12:46.612Z,1017.0
2017-10-30T11:13:48.090Z,1016.9
2017-10-30T11:14:49.770Z,1017.0
2017-10-30T11:15:51.562Z,1016.9
2017-10-30T11:16:53.389Z,1016.9
2017-10-30T11:17:55.104Z,1016.9
2017-10-30T11:18:56.913Z,1016.9
2017-10-30T11:19:58.849Z,1016.9
2017-10-30T11:21:00.637Z,1016.9
2017-10-30T11:22:02.375Z,1016.9
2017-10-30T11:23:04.203Z,1016.9
2017-10-30T11:24:06.077Z,1016.9
2017-10-30T11:25:07.895Z,1016.9
2017-10-30T11:26:09.486Z,1016.9
2017-10-30T11:27:11.015Z,1016.9
2017-10-30T11:28:12.793Z,1016.9
2017-10-30T11:29:14.592Z,1016.9
2017-10-30T11:30:16.390Z,1016.9
2017-10-30T11:31:18.212Z,1016.9
2017-10-30T11:32:19.976Z,1016.8
2017-10-30T11:33:21.485Z,1016.8
2017-10-30T11:34:23.186Z,1016.9
2017-10-30T11:35:24.737Z,1016.9
2017-10-30T11:36:26.367Z,1016.9
2017-10-30T11:37:28.632Z,1016.9
2017-10-30T11:38:30.605Z,1017.0
2017-10-30T11:39:32.309Z,1017.0
2017-10-30T11:40:34.049Z,1017.0
2017-10-30T11:41:35.770Z,1017.1
2017-10-30T11:42:37.477Z,1016.9
2017-10-30T11:43:39.307Z,1016.9
2017-10-30T11:44:41.132Z,1016.9
2017-10-30T11:45:42.894Z,1017.1
2017-10-30T11:46:44.661Z,1017.1
2017-10-30T11:47:46.136Z,1017.0
2017-10-30T11:48:47.750Z,1017.0
2017-10-30T11:49:49.443Z,1017.0
2017-10-30T11:50:51.266Z,1017.1
2017-10-30T11:51:53.091Z,1017.1
2017-10-30T11:52:55.024Z,1017.1
2017-10-30T11:53:56.684Z,1017.1
2017-10-30T11:54:58.401Z,1017.2
2017-10-30T11:56:00.161Z,1017.3
2017-10-30T11:57:01.943Z,1017.3
2017-10-30T11:58:03.747Z,1017.2
2017-10-30T11:59:05.556Z,1017.2
2017-10-30T12:00:07.321Z,1017.2
2017-10-30T12:01:09.113Z,1017.2
2017-10-30T12:02:10.928Z,1017.2
2017-10-30T12:03:12.514Z,1017.1
2017-10-30T12:04:14.258Z,1017.2
2017-10-30T12:05:16.069Z,1017.2
2017-10-30T12:06:17.670Z,1017.2
2017-10-30T12:07:19.478Z,1017.2
2017-10-30T12:08:21.281Z,1017.1
2017-10-30T12:09:23.070Z,1017.1
2017-10-30T12:10:24.708Z,1017.1
2017-10-30T12:11:26.175Z,1017.1
2017-10-30T12:12:28.866Z,1017.0
2017-10-30T12:13:30.558Z,1017.0
2017-10-30T12:14:32.349Z,1017.0
2017-10-30T12:15:33.817Z,1017.1
2017-10-30T12:16:35.251Z,1017.0
2017-10-30T12:17:36.937Z,1017.0
2017-10-30T12:18:38.812Z,1017.0
2017-10-30T12:19:40.288Z,1017.0
2017-10-30T12:20:42.211Z,1017.0
2017-10-30T12:21:44.076Z,1017.0
2017-10-30T12:22:45.713Z,1017.1
2017-10-30T12:23:47.216Z,1017.0
2017-10-30T12:24:48.696Z,1017.0
2017-10-30T12:25:50.683Z,1017.0
2017-10-30T12:26:52.157Z,1017.0
2017-10-30T12:27:53.689Z,1016.9
2017-10-30T12:28:55.420Z,1017.0
2017-10-30T12:29:57.164Z,1016.9
2017-10-30T12:30:58.658Z,1016.9
2017-10-30T12:32:00.690Z,1016.9
2017-10-30T12:33:02.432Z,1017.0
2017-10-30T12:34:04.177Z,1017.0
2017-10-30T12:35:05.648Z,1017.0
2017-10-30T12:36:07.383Z,1017.1
2017-10-30T12:37:09.574Z,1017.1
2017-10-30T12:38:10.972Z,1017.3
2017-10-30T12:39:12.587Z,1017.2
2017-10-30T12:40:14.119Z,1017.2
2017-10-30T12:41:16.305Z,1017.3
2017-10-30T12:42:17.988Z,1017.2
2017-10-30T12:43:19.792Z,1017.2
2017-10-30T12:44:21.636Z,1017.2
2017-10-30T12:45:23.100Z,1017.3
2017-10-30T12:46:24.884Z,1017.4
2017-10-30T12:47:26.527Z,1017.4
2017-10-30T12:48:27.987Z,1017.2
2017-10-30T12:49:29.442Z,1017.2